createdAt,value
2022-08-21T00:00:44.359Z,2.10
2022-08-21T00:03:12.712Z,2.90
2022-08-21T00:05:42.421Z,2.20
2022-08-21T00:08:10.352Z,2.63
2022-08-21T00:10:38.259Z,2.37
2022-08-21T00:13:07.735Z,2.13
2022-08-21T00:15:36.427Z,2.23
2022-08-21T00:18:04.970Z,2.00
2022-08-21T00:20:33.565Z,2.47
2022-08-21T00:23:01.413Z,2.27
2022-08-21T00:25:29.677Z,1.97
2022-08-21T00:27:57.874Z,2.30
2022-08-21T00:30:27.910Z,2.50
2022-08-21T00:32:56.661Z,2.30
2022-08-21T00:35:26.691Z,2.13
2022-08-21T00:37:54.561Z,3.13
2022-08-21T00:40:27.119Z,2.13
2022-08-21T00:42:55.069Z,2.27
2022-08-21T00:45:23.565Z,2.57
2022-08-21T00:47:53.288Z,2.40
2022-08-21T00:50:22.317Z,2.57
2022-08-21T00:52:50.739Z,2.30
2022-08-21T00:55:18.811Z,2.30
2022-08-21T00:57:50.387Z,2.20
2022-08-21T01:00:22.431Z,2.30
2022-08-21T01:02:50.299Z,2.30
2022-08-21T01:05:19.543Z,2.07
2022-08-21T01:07:47.383Z,2.10
2022-08-21T01:10:16.652Z,2.10
2022-08-21T01:12:52.837Z,2.20
2022-08-21T01:15:21.432Z,2.40
2022-08-21T01:17:50.015Z,2.20
2022-08-21T01:20:19.301Z,2.43
2022-08-21T01:22:48.555Z,2.40
2022-08-21T01:25:17.733Z,2.90
2022-08-21T01:27:45.916Z,2.63
2022-08-21T01:30:15.729Z,2.30
2022-08-21T01:32:44.307Z,2.50
2022-08-21T01:35:12.996Z,2.53
2022-08-21T01:37:40.867Z,2.40
2022-08-21T01:40:11.505Z,2.40
2022-08-21T01:42:39.451Z,1.83
2022-08-21T01:45:08.775Z,2.13
2022-08-21T01:47:36.677Z,2.77
2022-08-21T01:50:06.255Z,2.90
2022-08-21T01:52:34.087Z,2.70
2022-08-21T01:55:02.203Z,2.27
2022-08-21T01:57:31.521Z,2.83
2022-08-21T01:59:59.365Z,2.50
2022-08-21T02:02:27.227Z,2.70
2022-08-21T02:04:55.066Z,2.73
2022-08-21T02:07:23.035Z,2.50
2022-08-21T02:09:50.903Z,2.47
2022-08-21T02:12:18.848Z,2.50
2022-08-21T02:14:48.082Z,2.47
2022-08-21T02:17:15.928Z,2.40
2022-08-21T02:19:46.532Z,2.37
2022-08-21T02:22:14.379Z,2.10
2022-08-21T02:24:50.147Z,2.20
2022-08-21T02:27:26.231Z,1.90
2022-08-21T02:29:57.306Z,2.00
2022-08-21T02:32:25.190Z,2.20
2022-08-21T02:34:53.193Z,2.37
2022-08-21T02:37:20.762Z,2.53
2022-08-21T02:39:48.349Z,2.10
2022-08-21T02:42:15.959Z,2.07
2022-08-21T02:44:43.806Z,1.90
2022-08-21T02:47:12.744Z,2.30
2022-08-21T02:49:40.307Z,2.17
2022-08-21T02:52:07.863Z,2.63
2022-08-21T02:54:35.426Z,5.27
2022-08-21T02:57:03.577Z,6.93
2022-08-21T02:59:31.143Z,4.63
2022-08-21T03:01:58.757Z,4.17
2022-08-21T03:04:27.742Z,6.83
2022-08-21T03:06:55.291Z,9.03
2022-08-21T03:09:22.855Z,7.23
2022-08-21T03:11:50.579Z,4.63
2022-08-21T03:14:18.126Z,4.57
2022-08-21T03:16:45.703Z,4.00
2022-08-21T03:19:13.970Z,9.43
2022-08-21T03:21:42.888Z,7.73
2022-08-21T03:24:10.586Z,3.50
2022-08-21T03:26:38.403Z,3.40
2022-08-21T03:29:08.995Z,3.20
2022-08-21T03:31:36.551Z,2.87
2022-08-21T03:34:04.186Z,2.37
2022-08-21T03:36:31.799Z,2.43
2022-08-21T03:39:00.722Z,2.27
2022-08-21T03:41:28.579Z,2.00
2022-08-21T03:43:56.140Z,1.93
2022-08-21T03:46:23.825Z,2.07
2022-08-21T03:48:52.822Z,2.30
2022-08-21T03:51:20.490Z,2.33
2022-08-21T03:53:50.139Z,2.20
2022-08-21T03:56:19.066Z,1.70
2022-08-21T03:58:46.826Z,1.70
2022-08-21T04:01:16.010Z,1.57
2022-08-21T04:03:43.715Z,1.70
2022-08-21T04:06:11.282Z,2.07
2022-08-21T04:08:38.939Z,2.10
2022-08-21T04:11:06.736Z,2.20
2022-08-21T04:13:35.671Z,2.83
2022-08-21T04:16:11.979Z,2.40
2022-08-21T04:18:39.562Z,2.63
2022-08-21T04:21:07.879Z,2.77
2022-08-21T04:23:38.764Z,2.87
2022-08-21T04:26:07.134Z,2.90
2022-08-21T04:28:36.039Z,3.07
2022-08-21T04:31:03.636Z,3.87
2022-08-21T04:33:31.194Z,3.23
2022-08-21T04:35:58.763Z,3.10
2022-08-21T04:38:28.173Z,2.83
2022-08-21T04:41:05.664Z,3.60
2022-08-21T04:43:33.272Z,3.40
2022-08-21T04:46:02.795Z,3.20
2022-08-21T04:48:30.330Z,3.00
2022-08-21T04:50:59.267Z,3.50
2022-08-21T04:53:29.431Z,3.47
2022-08-21T04:55:59.670Z,2.40
2022-08-21T04:58:28.151Z,2.83
2022-08-21T05:00:56.059Z,2.40
2022-08-21T05:03:25.295Z,2.43
2022-08-21T05:05:52.859Z,2.33
2022-08-21T05:08:22.875Z,2.27
2022-08-21T05:10:50.526Z,2.50
2022-08-21T05:13:18.366Z,2.10
2022-08-21T05:15:45.983Z,2.00
2022-08-21T05:18:13.549Z,1.87
2022-08-21T05:20:42.647Z,1.93
2022-08-21T05:23:10.927Z,2.00
2022-08-21T05:25:38.800Z,2.10
2022-08-21T05:28:06.679Z,1.93
2022-08-21T05:30:34.527Z,1.80
2022-08-21T05:33:03.560Z,1.80
2022-08-21T05:35:31.546Z,1.80
2022-08-21T05:38:00.856Z,2.10
2022-08-21T05:40:29.076Z,1.97
2022-08-21T05:42:57.204Z,1.80
2022-08-21T05:45:41.652Z,2.07
2022-08-21T05:48:10.326Z,1.80
2022-08-21T05:50:38.953Z,1.70
2022-08-21T05:53:08.133Z,1.80
2022-08-21T05:55:41.387Z,1.80
2022-08-21T05:58:12.146Z,1.83
2022-08-21T06:00:39.708Z,1.90
2022-08-21T06:03:12.116Z,2.00
2022-08-21T06:05:39.751Z,1.97
2022-08-21T06:08:08.945Z,1.83
2022-08-21T06:10:36.751Z,2.40
2022-08-21T06:13:04.391Z,1.90
2022-08-21T06:15:31.982Z,1.90
2022-08-21T06:17:59.529Z,2.20
2022-08-21T06:20:27.604Z,2.20
2022-08-21T06:22:55.299Z,2.67
2022-08-21T06:25:24.263Z,2.70
2022-08-21T06:27:51.886Z,2.60
2022-08-21T06:30:19.582Z,2.80
2022-08-21T06:32:47.116Z,2.97
2022-08-21T06:35:14.727Z,3.63
2022-08-21T06:37:42.491Z,4.60
2022-08-21T06:40:12.788Z,4.90
2022-08-21T06:42:42.751Z,4.90
2022-08-21T06:45:10.846Z,4.53
2022-08-21T06:47:38.552Z,5.13
2022-08-21T06:50:08.369Z,6.80
2022-08-21T06:52:35.967Z,6.20
2022-08-21T06:55:03.584Z,6.67
2022-08-21T06:57:31.147Z,5.70
2022-08-21T07:00:00.082Z,5.87
2022-08-21T07:02:27.644Z,5.60
2022-08-21T07:04:55.297Z,5.73
2022-08-21T07:07:22.974Z,5.83
2022-08-21T07:09:50.519Z,5.63
2022-08-21T07:12:18.150Z,4.47
2022-08-21T07:14:45.680Z,4.00
2022-08-21T07:17:14.576Z,4.43
2022-08-21T07:19:42.132Z,4.20
2022-08-21T07:22:09.827Z,4.07
2022-08-21T07:24:37.375Z,3.70
2022-08-21T07:27:09.828Z,4.57
2022-08-21T07:29:37.680Z,3.83
2022-08-21T07:32:05.482Z,4.07
2022-08-21T07:34:34.518Z,4.17
2022-08-21T07:37:06.068Z,4.57
2022-08-21T07:39:38.231Z,4.33
2022-08-21T07:42:08.446Z,5.13
2022-08-21T07:44:36.268Z,5.90
2022-08-21T07:47:04.235Z,5.83
2022-08-21T07:49:31.793Z,8.03
2022-08-21T07:52:00.724Z,7.73
2022-08-21T07:54:33.478Z,7.57
2022-08-21T07:57:01.598Z,7.80
2022-08-21T07:59:29.415Z,8.40
2022-08-21T08:01:57.435Z,9.20
2022-08-21T08:04:26.571Z,8.27
2022-08-21T08:06:54.315Z,9.30
2022-08-21T08:09:23.511Z,8.00
2022-08-21T08:11:51.092Z,8.00
2022-08-21T08:14:18.651Z,8.27
2022-08-21T08:16:46.258Z,8.23
2022-08-21T08:19:13.807Z,7.03
2022-08-21T08:21:41.351Z,7.17
2022-08-21T08:24:19.298Z,6.53
2022-08-21T08:26:53.694Z,7.10
2022-08-21T08:29:22.134Z,6.47
2022-08-21T08:31:49.715Z,6.00
2022-08-21T08:34:23.446Z,6.03
2022-08-21T08:36:53.507Z,5.40
2022-08-21T08:39:26.946Z,6.23
2022-08-21T08:42:32.378Z,6.50
2022-08-21T08:44:57.928Z,6.50
2022-08-21T08:47:26.335Z,5.63
2022-08-21T08:49:57.219Z,5.40
2022-08-21T08:52:29.403Z,4.87
2022-08-21T08:55:01.439Z,4.70
2022-08-21T08:57:31.287Z,4.60
2022-08-21T09:00:00.447Z,4.80
2022-08-21T09:02:30.233Z,4.30
2022-08-21T09:04:58.571Z,4.17
2022-08-21T09:07:30.666Z,4.90
2022-08-21T09:10:13.012Z,4.10
2022-08-21T09:12:47.871Z,4.73
2022-08-21T09:15:22.981Z,3.90
2022-08-21T09:17:58.086Z,4.10
2022-08-21T09:20:30.871Z,3.83
2022-08-21T09:23:03.594Z,4.33
2022-08-21T09:25:34.203Z,3.50
2022-08-21T09:28:03.215Z,4.43
2022-08-21T09:30:31.963Z,3.70
2022-08-21T09:33:00.638Z,3.40
2022-08-21T09:35:28.572Z,2.80
2022-08-21T09:37:57.687Z,2.90
2022-08-21T09:40:31.417Z,2.77
2022-08-21T09:43:00.527Z,2.57
2022-08-21T09:45:29.676Z,2.70
2022-08-21T09:48:10.374Z,2.60
2022-08-21T09:50:38.031Z,2.50
2022-08-21T09:53:05.690Z,5.43
2022-08-21T09:55:52.074Z,2.53
2022-08-21T09:58:20.137Z,2.80
2022-08-21T10:00:58.225Z,3.17
2022-08-21T10:03:25.839Z,3.53
2022-08-21T10:05:55.426Z,2.17
2022-08-21T10:08:24.502Z,2.27
2022-08-21T10:10:54.393Z,2.07
2022-08-21T10:13:28.598Z,3.10
2022-08-21T10:16:02.295Z,2.77
2022-08-21T10:18:32.054Z,2.20
2022-08-21T10:21:03.066Z,1.90
2022-08-21T10:23:38.769Z,2.73
2022-08-21T10:26:14.539Z,3.87
2022-08-21T10:28:46.299Z,2.63
2022-08-21T10:31:17.851Z,3.17
2022-08-21T10:33:48.718Z,2.73
2022-08-21T10:36:19.115Z,2.07
2022-08-21T10:39:25.903Z,1.60
2022-08-21T10:41:55.400Z,2.03
2022-08-21T10:44:32.338Z,1.93
2022-08-21T10:47:03.842Z,1.97
2022-08-21T10:49:39.242Z,1.90
2022-08-21T10:52:17.816Z,1.63
2022-08-21T10:54:50.542Z,2.07
2022-08-21T10:57:29.856Z,2.10
2022-08-21T11:00:04.292Z,2.03
2022-08-21T11:02:34.785Z,2.47
2022-08-21T11:05:04.456Z,3.07
2022-08-21T11:07:34.686Z,2.50
2022-08-21T11:10:05.111Z,2.00
2022-08-21T11:12:36.105Z,2.10
2022-08-21T11:15:07.679Z,1.90
2022-08-21T11:17:57.856Z,2.30
2022-08-21T11:20:30.888Z,1.88
2022-08-21T11:23:03.690Z,2.20
2022-08-21T11:25:37.062Z,2.03
2022-08-21T11:28:10.885Z,2.70
2022-08-21T11:30:46.805Z,1.90
2022-08-21T11:33:22.908Z,1.53
2022-08-21T11:35:53.396Z,1.70
2022-08-21T11:38:31.211Z,2.17
2022-08-21T11:41:15.761Z,1.70
2022-08-21T11:43:44.743Z,1.35
2022-08-21T11:46:15.655Z,2.28
2022-08-21T11:48:47.854Z,1.60
2022-08-21T11:51:17.903Z,1.33
2022-08-21T11:53:54.314Z,1.50
2022-08-21T11:56:24.083Z,1.83
2022-08-21T11:58:52.932Z,1.60
2022-08-21T12:01:23.747Z,1.65
2022-08-21T12:03:56.061Z,1.95
2022-08-21T12:06:30.888Z,1.90
2022-08-21T12:09:00.208Z,1.80
2022-08-21T12:11:31.012Z,1.70
2022-08-21T12:14:01.840Z,1.73
2022-08-21T12:16:33.614Z,1.58
2022-08-21T12:19:07.338Z,1.45
2022-08-21T12:21:35.294Z,1.50
2022-08-21T12:24:05.094Z,2.13
2022-08-21T12:26:33.818Z,1.80
2022-08-21T12:29:15.818Z,1.55
2022-08-21T12:31:50.930Z,1.50
2022-08-21T12:34:21.259Z,1.50
2022-08-21T12:36:51.559Z,1.50
2022-08-21T12:39:23.640Z,2.00
2022-08-21T12:41:56.191Z,1.52
2022-08-21T12:44:30.035Z,1.40
2022-08-21T12:46:58.951Z,1.33
2022-08-21T12:49:31.559Z,1.45
2022-08-21T12:52:02.611Z,1.50
2022-08-21T12:54:31.992Z,1.50
2022-08-21T12:57:00.653Z,1.75
2022-08-21T12:59:28.508Z,1.70
2022-08-21T13:01:56.749Z,1.60
2022-08-21T13:04:27.258Z,1.65
2022-08-21T13:06:57.889Z,1.60
2022-08-21T13:09:27.863Z,1.58
2022-08-21T13:11:55.683Z,1.63
2022-08-21T13:14:27.003Z,1.77
2022-08-21T13:16:56.836Z,1.70
2022-08-21T13:19:24.979Z,1.70
2022-08-21T13:21:53.678Z,1.77
2022-08-21T13:24:42.832Z,1.73
2022-08-21T13:27:21.191Z,2.80
2022-08-21T13:29:54.052Z,1.65
2022-08-21T13:32:24.788Z,1.70
2022-08-21T13:34:54.048Z,1.52
2022-08-21T13:37:23.823Z,1.65
2022-08-21T13:39:53.577Z,1.50
2022-08-21T13:42:21.432Z,1.60
2022-08-21T13:44:49.651Z,2.30
2022-08-21T13:47:17.979Z,1.52
2022-08-21T13:49:47.270Z,1.40
2022-08-21T13:52:16.805Z,2.75
2022-08-21T13:54:45.588Z,1.35
2022-08-21T13:57:19.582Z,2.33
2022-08-21T13:59:47.453Z,1.88
2022-08-21T14:02:20.077Z,1.10
2022-08-21T14:04:53.257Z,1.52
2022-08-21T14:07:22.615Z,1.25
2022-08-21T14:09:50.196Z,1.20
2022-08-21T14:12:23.280Z,1.30
2022-08-21T14:14:51.818Z,1.08
2022-08-21T14:17:29.152Z,1.08
2022-08-21T14:20:01.829Z,1.17
2022-08-21T14:22:33.510Z,1.00
2022-08-21T14:25:02.244Z,1.23
2022-08-21T14:27:32.620Z,1.00
2022-08-21T14:30:01.688Z,1.00
2022-08-21T14:32:31.126Z,0.95
2022-08-21T14:35:00.429Z,1.00
2022-08-21T14:37:28.079Z,1.05
2022-08-21T14:39:55.685Z,1.27
2022-08-21T14:42:23.266Z,0.85
2022-08-21T14:44:52.494Z,0.90
2022-08-21T14:47:20.061Z,0.73
2022-08-21T14:49:47.615Z,0.80
2022-08-21T14:52:15.191Z,1.00
2022-08-21T14:54:42.745Z,1.23
2022-08-21T14:57:11.715Z,0.82
2022-08-21T14:59:39.755Z,0.90
2022-08-21T15:02:09.058Z,0.80
2022-08-21T15:04:36.810Z,0.90
2022-08-21T15:07:04.822Z,0.82
2022-08-21T15:09:32.402Z,0.90
2022-08-21T15:12:01.835Z,0.85
2022-08-21T15:14:30.655Z,0.73
2022-08-21T15:16:58.371Z,0.85
2022-08-21T15:19:28.242Z,1.05
2022-08-21T15:21:55.867Z,1.10
2022-08-21T15:24:23.416Z,0.90
2022-08-21T15:26:51.258Z,0.70
2022-08-21T15:29:22.539Z,0.68
2022-08-21T15:31:54.719Z,0.80
2022-08-21T15:34:23.319Z,0.70
2022-08-21T15:36:57.285Z,0.73
2022-08-21T15:39:31.267Z,0.80
2022-08-21T15:41:59.716Z,0.70
2022-08-21T15:44:30.758Z,0.70
2022-08-21T15:46:58.584Z,0.90
2022-08-21T15:49:26.135Z,0.80
2022-08-21T15:51:53.695Z,0.70
2022-08-21T15:54:22.611Z,0.70
2022-08-21T15:56:52.452Z,0.90
2022-08-21T15:59:22.754Z,0.80
2022-08-21T16:01:50.757Z,1.00
2022-08-21T16:04:21.480Z,1.10
2022-08-21T16:06:55.421Z,0.80
2022-08-21T16:09:27.114Z,0.80
2022-08-21T16:11:55.047Z,0.82
2022-08-21T16:14:22.608Z,1.10
2022-08-21T16:16:50.172Z,0.90
2022-08-21T16:19:17.756Z,1.00
2022-08-21T16:21:45.334Z,0.95
2022-08-21T16:24:12.871Z,0.90
2022-08-21T16:26:41.848Z,1.08
2022-08-21T16:29:11.034Z,1.00
2022-08-21T16:31:38.616Z,1.00
2022-08-21T16:34:06.178Z,0.80
2022-08-21T16:36:33.820Z,1.00
2022-08-21T16:39:01.815Z,0.80
2022-08-21T16:41:32.155Z,1.20
2022-08-21T16:44:01.949Z,2.10
2022-08-21T16:46:30.595Z,2.28
2022-08-21T16:48:58.214Z,1.67
2022-08-21T16:51:25.779Z,1.20
2022-08-21T16:53:53.387Z,1.70
2022-08-21T16:56:20.985Z,1.48
2022-08-21T16:58:49.577Z,2.10
2022-08-21T17:01:20.434Z,2.20
2022-08-21T17:03:48.815Z,1.50
2022-08-21T17:06:16.655Z,5.50
2022-08-21T17:08:44.380Z,6.68
2022-08-21T17:11:29.291Z,4.45
2022-08-21T17:14:05.179Z,1.98
2022-08-21T17:16:34.441Z,2.35
2022-08-21T17:19:01.983Z,2.10
2022-08-21T17:21:29.570Z,2.58
2022-08-21T17:23:57.130Z,2.40
2022-08-21T17:26:24.796Z,2.53
2022-08-21T17:28:54.916Z,2.40
2022-08-21T17:31:22.902Z,2.60
2022-08-21T17:33:52.965Z,2.58
2022-08-21T17:36:21.402Z,3.08
2022-08-21T17:38:48.998Z,2.45
2022-08-21T17:41:17.246Z,2.08
2022-08-21T17:43:44.895Z,1.65
2022-08-21T17:46:13.795Z,1.52
2022-08-21T17:48:41.355Z,1.25
2022-08-21T17:51:16.892Z,1.48
2022-08-21T17:53:44.914Z,3.92
2022-08-21T17:56:13.719Z,17.00
2022-08-21T17:58:41.947Z,15.55
2022-08-21T18:01:11.686Z,17.08
2022-08-21T18:03:39.291Z,9.10
2022-08-21T18:06:07.307Z,11.15
2022-08-21T18:08:36.244Z,7.32
2022-08-21T18:11:04.879Z,6.90
2022-08-21T18:13:35.314Z,4.32
2022-08-21T18:16:03.117Z,5.10
2022-08-21T18:18:34.281Z,4.05
2022-08-21T18:21:01.842Z,2.20
2022-08-21T18:23:43.442Z,1.60
2022-08-21T18:26:14.407Z,5.40
2022-08-21T18:28:42.231Z,1.70
2022-08-21T18:31:10.242Z,2.20
2022-08-21T18:33:38.263Z,3.50
2022-08-21T18:36:06.091Z,2.90
2022-08-21T18:38:35.434Z,2.10
2022-08-21T18:41:03.224Z,3.50
2022-08-21T18:43:39.244Z,3.13
2022-08-21T18:46:06.830Z,2.67
2022-08-21T18:48:34.395Z,2.05
2022-08-21T18:51:02.103Z,1.63
2022-08-21T18:53:30.036Z,1.50
2022-08-21T18:56:05.445Z,2.13
2022-08-21T18:58:33.350Z,1.13
2022-08-21T19:01:02.658Z,1.20
2022-08-21T19:03:30.268Z,1.40
2022-08-21T19:05:59.887Z,1.67
2022-08-21T19:08:28.651Z,1.63
2022-08-21T19:10:57.240Z,1.53
2022-08-21T19:13:28.190Z,1.60
2022-08-21T19:15:56.526Z,1.53
2022-08-21T19:18:28.374Z,1.30
2022-08-21T19:20:57.466Z,1.40
2022-08-21T19:26:13.368Z,1.60
2022-08-21T19:28:44.729Z,1.57
2022-08-21T19:31:16.282Z,1.40
2022-08-21T19:33:47.516Z,1.80
2022-08-21T19:36:18.746Z,1.93
2022-08-21T19:38:47.318Z,1.60
2022-08-21T19:41:16.494Z,1.60
2022-08-21T19:43:44.838Z,1.53
2022-08-21T19:46:12.865Z,1.77
2022-08-21T19:48:40.646Z,1.47
2022-08-21T19:51:09.675Z,1.63
2022-08-21T19:53:37.245Z,1.50
2022-08-21T19:56:05.360Z,4.63
2022-08-21T19:58:35.358Z,1.60
2022-08-21T20:01:04.227Z,1.50
2022-08-21T20:03:39.168Z,1.63
2022-08-21T20:06:12.483Z,1.77
2022-08-21T20:08:42.189Z,1.60
2022-08-21T20:11:11.435Z,1.60
2022-08-21T20:13:39.481Z,1.63
2022-08-21T20:16:12.625Z,1.60
2022-08-21T20:18:41.562Z,1.57
2022-08-21T20:21:10.799Z,3.57
2022-08-21T20:23:48.718Z,1.80
2022-08-21T20:26:17.313Z,1.50
2022-08-21T20:28:45.278Z,1.90
2022-08-21T20:31:14.562Z,1.80
2022-08-21T20:33:42.662Z,1.70
2022-08-21T20:36:10.411Z,1.30
2022-08-21T20:38:39.354Z,1.70
2022-08-21T20:41:17.909Z,1.50
2022-08-21T20:43:50.174Z,1.50
2022-08-21T20:46:20.323Z,1.53
2022-08-21T20:48:49.473Z,1.60
2022-08-21T20:51:21.337Z,1.77
2022-08-21T20:53:53.066Z,1.77
2022-08-21T20:56:30.579Z,1.70
2022-08-21T20:59:01.840Z,1.50
2022-08-21T21:01:32.440Z,1.60
2022-08-21T21:04:03.870Z,1.60
2022-08-21T21:06:32.280Z,1.70
2022-08-21T21:09:06.870Z,3.23
2022-08-21T21:11:38.272Z,1.70
2022-08-21T21:14:08.640Z,3.03
2022-08-21T21:16:39.597Z,1.90
2022-08-21T21:19:11.011Z,1.40
2022-08-21T21:21:41.360Z,1.80
2022-08-21T21:24:22.899Z,2.83
2022-08-21T21:26:58.315Z,2.20
2022-08-21T21:29:29.749Z,1.90
2022-08-21T21:31:57.755Z,1.67
2022-08-21T21:34:27.865Z,3.97
2022-08-21T21:36:58.934Z,1.80
2022-08-21T21:39:36.104Z,1.97
2022-08-21T21:42:10.588Z,2.00
2022-08-21T21:44:44.450Z,1.70
2022-08-21T21:47:16.171Z,1.97
2022-08-21T21:49:53.149Z,1.80
2022-08-21T21:52:35.914Z,2.10
2022-08-21T21:55:13.463Z,2.83
2022-08-21T21:57:52.662Z,1.87
2022-08-21T22:00:24.377Z,1.80
2022-08-21T22:02:58.721Z,2.00
2022-08-21T22:05:38.211Z,1.83
2022-08-21T22:08:08.610Z,1.67
2022-08-21T22:10:43.265Z,2.13
2022-08-21T22:13:26.348Z,1.80
2022-08-21T22:15:54.360Z,2.03
2022-08-21T22:18:25.513Z,2.23
2022-08-21T22:20:55.028Z,2.20
2022-08-21T22:23:25.456Z,2.40
2022-08-21T22:25:55.639Z,2.40
2022-08-21T22:28:25.931Z,2.47
2022-08-21T22:30:54.566Z,2.33
2022-08-21T22:33:23.079Z,2.20
2022-08-21T22:35:52.787Z,2.50
2022-08-21T22:38:23.213Z,2.40
2022-08-21T22:40:50.886Z,2.30
2022-08-21T22:43:20.801Z,2.70
2022-08-21T22:45:57.034Z,2.53
2022-08-21T22:48:25.446Z,2.30
2022-08-21T22:50:57.263Z,2.20
2022-08-21T22:53:27.911Z,2.50
2022-08-21T22:55:56.662Z,2.37
2022-08-21T22:58:28.287Z,2.60
2022-08-21T23:00:58.016Z,2.23
2022-08-21T23:03:31.554Z,2.50
2022-08-21T23:06:01.827Z,2.13
2022-08-21T23:08:32.786Z,1.90
2022-08-21T23:11:02.847Z,1.70
2022-08-21T23:13:41.271Z,2.63
2022-08-21T23:16:15.844Z,2.03
2022-08-21T23:18:48.579Z,2.00
2022-08-21T23:21:19.451Z,2.43
2022-08-21T23:23:54.589Z,2.30
2022-08-21T23:26:27.288Z,2.30
2022-08-21T23:29:04.681Z,2.07
2022-08-21T23:31:39.537Z,1.70
2022-08-21T23:34:15.885Z,2.07
2022-08-21T23:40:09.587Z,2.10
2022-08-21T23:42:47.139Z,2.50
2022-08-21T23:45:24.379Z,2.93
2022-08-21T23:48:05.171Z,2.17
2022-08-21T23:50:35.284Z,2.40
2022-08-21T23:53:11.928Z,2.40
2022-08-21T23:55:43.192Z,2.20
2022-08-21T23:58:20.698Z,2.23
